Data for 10/27/2018

Time Sea-Level Adjusted Pressure Absolute Pressure Temperature Relative Humidity Dew Point   
(mb) (inHg) (mb) (inHg) (C) (F) (%) (C) (F)
00:05 1016 30 845 24.95 13 55.4 47 2.1 35.7
00:10 1016 30 845 24.95 13.2 55.7 46 1.8 35.3
00:15 1016 30 845 24.95 13.4 56.1 46 2 35.5
00:20 1016 30 845 24.95 13.2 55.8 47 2.3 36.2
00:25 1016 30 845 24.95 12.9 55.2 48 2.2 36
00:30 1016 30 845 24.95 12.8 55.1 47 2 35.6
00:35 1016 30 845 24.95 12.9 55.2 47 2 35.5
00:40 1016 30 845 24.95 13 55.3 47 2 35.5
00:45 1016 30 845 24.95 13 55.4 47 2 35.6
00:50 1016 30 845 24.95 13.1 55.5 46 1.8 35.3
00:55 1016 30 845 24.95 13.1 55.6 46 1.9 35.4
01:00 1016 30 845 24.95 13.1 55.6 46 1.9 35.4
01:05 1016 30 845 24.95 13 55.4 46 1.9 35.4
01:10 1016 30 845 24.95 13 55.4 47 2 35.7
01:15 1015 29.97 845 24.95 13 55.4 46 1.8 35.2
01:20 1015 29.97 845 24.95 13.1 55.5 46 1.8 35.3
01:25 1015 29.97 845 24.95 13.1 55.5 46 1.8 35.3
01:30 1015 29.97 845 24.95 13.1 55.5 46 1.9 35.4
01:35 1015 29.97 845 24.95 13 55.3 47 1.9 35.4
01:40 1015 29.97 845 24.95 12.9 55.2 47 1.8 35.3
01:45 1015 29.97 845 24.95 12.9 55.2 47 2 35.5
01:50 1015 29.97 845 24.95 12.8 55.1 47 2 35.6
01:55 1015 29.97 845 24.95 12.8 55.1 47 1.8 35.2
02:00 1016 30 845 24.95 13.1 55.5 45 1.5 34.7
02:05 1016 30 845 24.95 13.3 55.9 44 1.4 34.6
02:10 1016 30 845 24.95 13.4 56.1 44 1.4 34.5
02:15 1016 30 845 24.95 13.5 56.4 43 1.3 34.4
02:20 1016 30 845 24.95 13.6 56.4 43 1.4 34.5
02:25 1016 30 845 24.95 13.5 56.3 43 1.4 34.5
02:30 1016 30 845 24.95 13.5 56.3 43 1.4 34.5
02:35 1016 30 845 24.95 13.5 56.3 44 1.4 34.6
02:40 1015 29.97 845 24.95 13.5 56.4 43 1.4 34.6
02:45 1015 29.97 845 24.95 13.5 56.3 44 1.4 34.6
02:50 1015 29.97 844 24.92 13.6 56.5 43 1.3 34.3
02:55 1015 29.97 844 24.92 13.8 56.8 42 1.3 34.3
03:00 1015 29.97 844 24.92 13.8 56.8 43 1.4 34.5
03:05 1015 29.97 844 24.92 13.7 56.6 44 1.7 35
03:10 1015 29.97 844 24.92 13.1 55.6 48 2.5 36.5
03:15 1015 29.97 844 24.92 12.5 54.6 48 1.9 35.5
03:20 1015 29.97 844 24.92 12.5 54.4 49 2.1 35.8
03:25 1015 29.97 844 24.92 12.6 54.6 47 1.6 34.9
03:30 1015 29.97 844 24.92 12.8 55.1 46 1.7 35
03:35 1015 29.97 844 24.92 12.9 55.3 47 1.8 35.3
03:40 1015 29.97 844 24.92 12.8 55.1 49 2.3 36.2
03:45 1015 29.97 844 24.92 12.6 54.7 48 2.1 35.7
03:50 1015 29.97 844 24.92 12.4 54.4 49 2.2 35.9
03:55 1015 29.97 844 24.92 12.4 54.2 49 2.1 35.8
04:00 1015 29.97 844 24.92 12.3 54.2 50 2.2 36
04:05 1015 29.97 844 24.92 12.3 54.1 51 2.5 36.4
04:10 1015 29.97 844 24.92 12 53.7 54 3 37.3
04:15 1015 29.97 844 24.92 11.7 53 57 3.5 38.2
04:20 1015 29.97 844 24.92 11.3 52.4 61 4 39.3
04:25 1015 29.97 844 24.92 10.9 51.5 62 4 39.2
04:30 1015 29.97 845 24.95 10.7 51.2 64 4.1 39.5
04:35 1016 30 845 24.95 10.6 51 65 4.4 39.9
04:40 1016 30 845 24.95 10.4 50.7 67 4.5 40.1
04:45 1016 30 845 24.95 10.3 50.5 67 4.4 40
04:50 1016 30 845 24.95 10.2 50.3 67 4.4 39.9
04:55 1016 30 845 24.95 10.1 50.2 69 4.6 40.3
05:00 1016 30 845 24.95 9.9 49.9 70 4.7 40.4
05:05 1016 30 845 24.95 9.8 49.7 71 4.8 40.6
05:10 1016 30 845 24.95 9.8 49.6 72 4.9 40.9
05:15 1016 30 845 24.95 9.7 49.5 72 4.9 40.8
05:20 1016 30 846 24.98 9.8 49.6 72 4.9 40.9
05:25 1017 30.03 846 24.98 9.8 49.7 72 5.1 41.2
05:30 1017 30.03 846 24.98 9.8 49.6 74 5.4 41.8
05:35 1017 30.03 846 24.98 9.5 49.2 78 5.8 42.5
05:40 1017 30.03 846 24.98 9.1 48.5 81 6.1 43
05:45 1017 30.03 846 24.98 8.8 47.8 84 6.2 43.2
05:50 1017 30.03 846 24.98 8.6 47.4 85 6.3 43.3
05:55 1017 30.03 846 24.98 8.5 47.2 86 6.3 43.3
06:00 1018 30.06 847 25.01 8.4 47.1 87 6.3 43.4
06:05 1018 30.06 847 25.01 8.4 47 87 6.4 43.5
06:10 1018 30.06 847 25.01 8.3 47 88 6.4 43.5
06:15 1018 30.06 847 25.01 8.3 47 88 6.4 43.6
06:20 1018 30.06 847 25.01 8.3 46.9 88 6.4 43.6
06:25 1018 30.06 847 25.01 8.3 46.9 88 6.5 43.6
06:30 1018 30.06 847 25.01 8.2 46.7 88 6.3 43.3
06:35 1018 30.06 847 25.01 8.1 46.6 88 6.2 43.2
06:40 1018 30.06 847 25.01 8.1 46.6 87 6.1 42.9
06:45 1018 30.06 847 25.01 8.1 46.5 86 5.9 42.6
06:50 1018 30.06 847 25.01 8 46.4 86 5.8 42.4
06:55 1018 30.06 847 25.01 8 46.3 85 5.7 42.2
07:00 1018 30.06 847 25.01 8 46.4 85 5.7 42.3
07:05 1018 30.06 847 25.01 8 46.4 86 5.8 42.5
07:10 1018 30.06 848 25.04 8 46.4 86 5.8 42.4
07:15 1018 30.06 848 25.04 8.1 46.5 85 5.7 42.3
07:20 1019 30.09 848 25.04 8.2 46.8 83 5.5 41.9
07:25 1019 30.09 848 25.04 8.3 47 81 5.3 41.6
07:30 1018 30.06 848 25.04 8.4 47.1 81 5.2 41.4
07:35 1019 30.09 848 25.04 8.4 47 80 5.1 41.1
07:40 1019 30.09 848 25.04 8.4 47.1 80 5.1 41.1
07:45 1019 30.09 848 25.04 8.4 47.1 79 4.9 40.8
07:50 1019 30.09 848 25.04 8.5 47.3 76 4.5 40.2
07:55 1019 30.09 848 25.04 8.6 47.6 77 4.8 40.6
08:00 1019 30.09 848 25.04 8.7 47.7 75 4.5 40.1
08:05 1019 30.09 848 25.04 8.8 47.8 75 4.5 40.1
08:10 1019 30.09 849 25.07 8.8 47.8 75 4.5 40.1
08:15 1020 30.12 849 25.07 8.8 47.8 76 4.8 40.6
08:20 1020 30.12 849 25.07 8.7 47.6 76 4.7 40.4
08:25 1020 30.12 849 25.07 8.6 47.4 77 4.8 40.7
08:30 1020 30.12 849 25.07 8.5 47.4 77 4.8 40.6
08:35 1020 30.12 849 25.07 8.6 47.4 76 4.7 40.4
08:40 1020 30.12 849 25.07 8.6 47.5 76 4.6 40.3
08:45 1020 30.12 849 25.07 8.6 47.5 77 4.8 40.6
08:50 1020 30.12 849 25.07 8.6 47.5 77 4.8 40.7
08:55 1020 30.12 849 25.07 8.6 47.5 77 4.9 40.8
09:00 1020 30.12 849 25.07 8.6 47.5 77 4.8 40.6
09:05 1020 30.12 849 25.07 8.6 47.5 77 4.9 40.8
09:10 1020 30.12 850 25.1 8.6 47.5 77 4.7 40.5
09:15 1020 30.12 850 25.1 8.6 47.6 76 4.6 40.2
09:20 1020 30.12 850 25.1 8.7 47.6 76 4.7 40.4
09:25 1021 30.15 850 25.1 8.7 47.6 76 4.8 40.6
09:30 1021 30.15 850 25.1 8.7 47.6 77 4.9 40.9
09:35 1021 30.15 850 25.1 8.6 47.4 77 4.7 40.5
09:40 1021 30.15 850 25.1 8.6 47.5 75 4.4 39.9
09:45 1021 30.15 850 25.1 8.6 47.6 75 4.5 40.1
09:50 1021 30.15 850 25.1 8.6 47.6 76 4.7 40.4
09:55 1021 30.15 850 25.1 8.6 47.5 76 4.6 40.2
10:00 1021 30.15 850 25.1 8.5 47.4 77 4.7 40.4
10:05 1021 30.15 850 25.1 8.6 47.4 78 4.9 40.8
10:10 1021 30.15 850 25.1 8.5 47.3 78 4.8 40.7
10:15 1021 30.15 851 25.13 8.4 47.1 77 4.7 40.4
10:20 1021 30.15 851 25.13 8.2 46.8 79 4.8 40.6
10:25 1021 30.15 851 25.13 8.2 46.8 78 4.6 40.3
10:30 1021 30.15 851 25.13 8.2 46.8 78 4.7 40.5
10:35 1022 30.18 851 25.13 8.2 46.7 79 4.8 40.7
10:40 1022 30.18 851 25.13 8.2 46.8 79 4.8 40.7
10:45 1022 30.18 851 25.13 8.3 46.9 78 4.6 40.4
10:50 1021 30.15 851 25.13 8.3 46.9 76 4.4 39.9
10:55 1021 30.15 851 25.13 8.4 47 76 4.4 39.9
11:00 1021 30.15 851 25.13 8.3 47 78 4.7 40.4
11:05 1021 30.15 851 25.13 8.5 47.3 76 4.5 40
11:10 1022 30.18 851 25.13 8.5 47.3 74 4.2 39.6
11:15 1022 30.18 851 25.13 8.6 47.4 74 4.2 39.6
11:20 1022 30.18 851 25.13 8.6 47.5 74 4.3 39.7
11:25 1022 30.18 851 25.13 8.7 47.7 74 4.3 39.8
11:30 1022 30.18 851 25.13 8.8 47.9 74 4.4 40
11:35 1022 30.18 851 25.13 9 48.1 73 4.4 40
11:40 1022 30.18 851 25.13 9 48.2 70 3.9 39.1
11:45 1022 30.18 851 25.13 8.6 47.5 68 3.2 37.7
11:50 1022 30.18 851 25.13 8.5 47.4 69 3.2 37.8
11:55 1022 30.18 851 25.13 8.8 47.9 67 3.1 37.6
12:00 1022 30.18 851 25.13 9.2 48.5 68 3.6 38.5
12:05 1022 30.18 851 25.13 9.5 49.1 67 3.6 38.6
12:10 1022 30.18 851 25.13 9.7 49.5 66 3.7 38.6
12:15 1022 30.18 851 25.13 9.5 49.1 65 3.3 37.9
12:20 1022 30.18 851 25.13 9.5 49.1 61 2.4 36.3
12:25 1022 30.18 851 25.13 9.5 49 61 2.3 36.1
12:30 1022 30.18 851 25.13 9.6 49.2 62 2.6 36.6
12:35 1022 30.18 851 25.13 9.5 49.2 61 2.5 36.4
12:40 1022 30.18 851 25.13 9.7 49.4 62 2.8 37.1
12:45 1022 30.18 851 25.13 10.1 50.2 61 3 37.4
12:50 1022 30.18 851 25.13 10.3 50.6 61 3.2 37.7
12:55 1022 30.18 851 25.13 11.1 51.9 59 3.3 37.9
13:00 1022 30.18 851 25.13 10.8 51.5 61 3.5 38.4
13:05 1022 30.18 851 25.13 10.5 50.8 63 3.7 38.7
13:10 1022 30.18 851 25.13 10.5 50.8 59 2.9 37.2
13:15 1022 30.18 851 25.13 11 51.8 56 2.6 36.7
13:20 1022 30.18 851 25.13 11.2 52.1 56 2.8 37
13:25 1022 30.18 851 25.13 11.5 52.7 55 2.8 37
13:30 1022 30.18 851 25.13 11.4 52.5 55 2.8 37
13:35 1022 30.18 851 25.13 12 53.6 51 2.2 35.9
13:40 1022 30.18 851 25.13 12.2 54 55 3.4 38.1
13:45 1022 30.18 851 25.13 11.8 53.2 50 1.7 35.1
13:50 1022 30.18 851 25.13 12.1 53.7 47 1.1 33.9
13:55 1022 30.18 851 25.13 12.5 54.4 45 1 33.8
14:00 1022 30.18 851 25.13 12.1 53.9 43 -0 31.9
14:05 1022 30.18 851 25.13 11.9 53.4 42 -0.6 30.9
14:10 1022 30.18 851 25.13 12.7 54.8 40 -0.6 30.9
14:15 1022 30.18 851 25.13 13 55.4 40 -0.2 31.7
14:20 1022 30.18 851 25.13 13 55.3 41 0.2 32.4
14:25 1022 30.18 851 25.13 13.5 56.3 40 0.3 32.5
14:30 1021 30.15 851 25.13 12.6 54.8 42 0.3 32.5
14:35 1021 30.15 851 25.13 13.1 55.5 41 0.3 32.6
14:40 1021 30.15 851 25.13 12.8 55 42 0.4 32.7
14:45 1021 30.15 851 25.13 12.1 53.8 43 -0.1 31.9
14:50 1021 30.15 850 25.1 12.9 55.1 39 -0.6 30.9
14:55 1021 30.15 850 25.1 12.6 54.7 42 0.1 32.2
15:00 1021 30.15 850 25.1 12.5 54.5 41 -0.5 31.2
15:05 1021 30.15 850 25.1 13.2 55.7 37 -1 30.2
15:10 1021 30.15 850 25.1 13.2 55.7 38 -0.7 30.8
15:15 1021 30.15 850 25.1 13.3 55.9 38 -0.8 30.6
15:20 1021 30.15 850 25.1 12.8 55.1 38 -1 30.3
15:25 1021 30.15 850 25.1 13 55.3 37 -1.2 29.8
15:30 1021 30.15 850 25.1 12.7 54.8 39 -1 30.3
15:35 1021 30.15 850 25.1 12.6 54.6 38 -1.4 29.4
15:40 1021 30.15 850 25.1 12.6 54.7 38 -1.3 29.6
15:45 1021 30.15 850 25.1 13.3 55.9 36 -1.3 29.6
15:50 1021 30.15 850 25.1 13.3 56 35 -1.6 29.2
15:55 1021 30.15 850 25.1 13.6 56.5 33 -2.4 27.6
16:00 1021 30.15 850 25.1 13.5 56.3 32 -2.8 26.9
16:05 1021 30.15 850 25.1 13.7 56.6 31 -2.9 26.7
16:10 1021 30.15 850 25.1 13.2 55.8 32 -3.1 26.4
16:15 1021 30.15 850 25.1 13.3 56 30 -3.6 25.5
16:20 1021 30.15 850 25.1 13.6 56.5 30 -3.5 25.7
16:25 1021 30.15 850 25.1 13.8 56.8 30 -3.5 25.8
16:30 1021 30.15 850 25.1 13.7 56.7 30 -3.5 25.7
16:35 1021 30.15 850 25.1 13.6 56.5 29 -4.1 24.6
16:40 1021 30.15 850 25.1 13.4 56.2 30 -3.9 25
16:45 1021 30.15 850 25.1 13.1 55.7 30 -3.9 25
16:50 1021 30.15 850 25.1 13 55.3 31 -3.9 25.1
16:55 1021 30.15 850 25.1 12.9 55.1 31 -3.9 25
17:00 1021 30.15 850 25.1 12.8 55.1 30 -4.1 24.7
17:05 1021 30.15 850 25.1 12.8 55 31 -3.9 25
17:10 1021 30.15 850 25.1 11.8 53.2 49 1.4 34.6
17:15 1021 30.15 850 25.1 9.9 49.8 53 0.7 33.3
17:20 1021 30.15 850 25.1 8.9 48.1 56 0.7 33.3
17:25 1021 30.15 850 25.1 8.5 47.3 58 0.6 33.1
17:30 1021 30.15 851 25.13 8.2 46.8 58 0.5 32.8
17:35 1021 30.15 851 25.13 8.1 46.6 57 0.2 32.4
17:40 1021 30.15 851 25.13 8.4 47 57 0.4 32.6
17:45 1021 30.15 851 25.13 8.2 46.7 58 0.5 33
17:50 1021 30.15 851 25.13 7.8 46 58 0.2 32.3
17:55 1021 30.15 851 25.13 7.6 45.7 59 0 32.1
18:00 1022 30.18 851 25.13 7.4 45.2 58 -0.3 31.5
18:05 1022 30.18 851 25.13 7 44.6 60 -0.2 31.7
18:10 1022 30.18 851 25.13 6.6 43.9 63 -0 32
18:15 1022 30.18 851 25.13 6.1 43 65 0 32.1
18:20 1022 30.18 851 25.13 5.9 42.5 65 -0.2 31.6
18:25 1022 30.18 851 25.13 5.7 42.2 65 -0.4 31.3
18:30 1022 30.18 851 25.13 5.6 42.1 63 -0.8 30.5
18:35 1022 30.18 851 25.13 5.8 42.4 63 -0.8 30.6
18:40 1022 30.18 851 25.13 5.7 42.3 63 -0.8 30.6
18:45 1022 30.18 851 25.13 5.6 42 64 -0.7 30.7
18:50 1022 30.18 851 25.13 5.3 41.6 65 -0.8 30.6
18:55 1022 30.18 851 25.13 5.2 41.3 64 -1.2 29.9
19:00 1022 30.18 851 25.13 5.4 41.7 60 -1.7 28.9
19:05 1022 30.18 851 25.13 5.6 42.2 58 -2.1 28.3
19:10 1022 30.18 851 25.13 6.2 43.2 54 -2.3 27.9
19:15 1022 30.18 851 25.13 6.2 43.2 56 -1.9 28.5
19:20 1022 30.18 851 25.13 6 42.8 57 -1.8 28.8
19:25 1022 30.18 851 25.13 5.8 42.4 58 -1.7 28.9
19:30 1022 30.18 851 25.13 5.5 42 59 -1.9 28.6
19:35 1022 30.18 851 25.13 5.3 41.6 58 -2.2 28.1
19:40 1022 30.18 851 25.13 5.2 41.3 58 -2.5 27.5
19:45 1022 30.18 851 25.13 5.4 41.8 56 -2.5 27.4
19:50 1022 30.18 851 25.13 5.4 41.7 57 -2.3 27.8
19:55 1022 30.18 851 25.13 5.2 41.4 58 -2.3 27.8
20:00 1022 30.18 851 25.13 4.9 40.9 60 -2.2 28
20:05 1022 30.18 851 25.13 4.7 40.5 59 -2.6 27.4
20:10 1022 30.18 851 25.13 4.9 40.8 59 -2.5 27.4
20:15 1022 30.18 851 25.13 4.9 40.9 58 -2.6 27.2
20:20 1022 30.18 851 25.13 4.9 40.8 57 -2.8 26.9
20:25 1022 30.18 851 25.13 4.8 40.7 57 -2.8 26.9
20:30 1022 30.18 851 25.13 4.9 40.7 56 -3.1 26.4
20:35 1022 30.18 851 25.13 5 41.1 58 -2.6 27.4
20:40 1022 30.18 851 25.13 4.4 39.9 62 -2.3 27.8
20:45 1022 30.18 851 25.13 4.2 39.6 60 -2.9 26.8
20:50 1022 30.18 851 25.13 4.4 39.9 60 -2.8 27
20:55 1022 30.18 851 25.13 4.3 39.8 58 -3.2 26.3
21:00 1022 30.18 851 25.13 4.7 40.4 56 -3.2 26.2
21:05 1022 30.18 851 25.13 4.9 40.8 56 -3.1 26.5
21:10 1022 30.18 851 25.13 4.7 40.5 57 -3 26.6
21:15 1022 30.18 851 25.13 4.7 40.4 57 -3.1 26.5
21:20 1022 30.18 851 25.13 4.2 39.6 62 -2.5 27.6
21:25 1022 30.18 851 25.13 3.6 38.5 64 -2.6 27.4
21:30 1022 30.18 851 25.13 3.6 38.5 62 -3 26.6
21:35 1022 30.18 851 25.13 4 39.2 58 -3.6 25.5
21:40 1022 30.18 851 25.13 4.4 39.8 58 -3.2 26.3
21:45 1022 30.18 851 25.13 4.1 39.4 59 -3.1 26.4
21:50 1022 30.18 851 25.13 3.8 38.8 61 -3 26.7
21:55 1022 30.18 851 25.13 3.5 38.3 62 -3.1 26.5
22:00 1022 30.18 851 25.13 3.3 37.9 64 -3 26.6
22:05 1022 30.18 851 25.13 2.9 37.3 65 -3 26.6
22:10 1022 30.18 851 25.13 2.8 37.1 64 -3.3 26.1
22:15 1022 30.18 851 25.13 3.1 37.5 63 -3.3 26.1
22:20 1022 30.18 851 25.13 3.1 37.7 62 -3.3 26
22:25 1022 30.18 851 25.13 3.1 37.5 63 -3.4 25.9
22:30 1022 30.18 851 25.13 3 37.4 62 -3.6 25.5
22:35 1022 30.18 851 25.13 3.4 38.1 60 -3.7 25.3
22:40 1022 30.18 851 25.13 3.5 38.3 59 -3.8 25.2
22:45 1022 30.18 851 25.13 3.6 38.4 59 -3.8 25.2
22:50 1021 30.15 851 25.13 3.4 38.2 60 -3.6 25.4
22:55 1021 30.15 851 25.13 3.2 37.8 61 -3.5 25.6
23:00 1021 30.15 851 25.13 3 37.5 62 -3.5 25.7
23:05 1021 30.15 851 25.13 3 37.3 62 -3.7 25.3
23:10 1021 30.15 851 25.13 3.1 37.7 60 -3.8 25.1
23:15 1021 30.15 851 25.13 3.3 38 59 -3.8 25.1
23:20 1021 30.15 851 25.13 3.4 38.1 60 -3.6 25.6
23:25 1021 30.15 850 25.1 3.2 37.8 62 -3.4 25.9
23:30 1021 30.15 850 25.1 3.1 37.6 63 -3.4 25.9
23:35 1021 30.15 850 25.1 3.1 37.5 62 -3.5 25.7
23:40 1021 30.15 850 25.1 3.2 37.7 62 -3.4 25.9
23:45 1021 30.15 850 25.1 3.3 38 61 -3.6 25.6
23:50 1021 30.15 850 25.1 3.6 38.4 60 -3.5 25.6
23:55 1021 30.15 850 25.1 3.7 38.6 60 -3.4 26
24:00 1021 30.15 850 25.1 3.6 38.4 60 -3.4 25.8